sensor_id;sensor_type;location;lat;lon;timestamp;P1;durP1;ratioP1;P2;durP2;ratioP2
56581;SDS011;42463;52.214;21.238;2022-07-24T00:01:09;18.90;;;15.00;;
56581;SDS011;42463;52.214;21.238;2022-07-24T00:03:35;19.30;;;15.60;;
56581;SDS011;42463;52.214;21.238;2022-07-24T00:06:02;22.90;;;15.80;;
56581;SDS011;42463;52.214;21.238;2022-07-24T00:08:28;19.30;;;15.00;;
56581;SDS011;42463;52.214;21.238;2022-07-24T00:10:54;20.00;;;15.10;;
56581;SDS011;42463;52.214;21.238;2022-07-24T00:13:20;19.10;;;15.20;;
56581;SDS011;42463;52.214;21.238;2022-07-24T00:15:46;17.30;;;15.20;;
56581;SDS011;42463;52.214;21.238;2022-07-24T00:18:12;16.60;;;14.20;;
56581;SDS011;42463;52.214;21.238;2022-07-24T00:20:39;18.30;;;13.90;;
56581;SDS011;42463;52.214;21.238;2022-07-24T00:23:05;16.50;;;13.90;;
56581;SDS011;42463;52.214;21.238;2022-07-24T00:25:32;19.20;;;14.90;;
56581;SDS011;42463;52.214;21.238;2022-07-24T00:27:58;16.30;;;14.00;;
56581;SDS011;42463;52.214;21.238;2022-07-24T00:30:24;16.50;;;13.60;;
56581;SDS011;42463;52.214;21.238;2022-07-24T00:32:50;17.60;;;14.60;;
56581;SDS011;42463;52.214;21.238;2022-07-24T00:35:16;16.90;;;14.50;;
56581;SDS011;42463;52.214;21.238;2022-07-24T00:37:42;18.60;;;13.90;;
56581;SDS011;42463;52.214;21.238;2022-07-24T00:40:10;21.00;;;16.20;;
56581;SDS011;42463;52.214;21.238;2022-07-24T00:42:38;18.10;;;16.00;;
56581;SDS011;42463;52.214;21.238;2022-07-24T00:45:05;20.60;;;16.80;;
56581;SDS011;42463;52.214;21.238;2022-07-24T00:47:32;21.60;;;17.00;;
56581;SDS011;42463;52.214;21.238;2022-07-24T00:49:58;19.50;;;16.50;;
56581;SDS011;42463;52.214;21.238;2022-07-24T00:52:27;22.00;;;16.30;;
56581;SDS011;42463;52.214;21.238;2022-07-24T00:54:53;21.40;;;17.90;;
56581;SDS011;42463;52.214;21.238;2022-07-24T00:57:19;20.30;;;17.80;;
56581;SDS011;42463;52.214;21.238;2022-07-24T00:59:46;23.90;;;17.10;;
56581;SDS011;42463;52.214;21.238;2022-07-24T01:02:38;25.20;;;17.90;;
56581;SDS011;42463;52.214;21.238;2022-07-24T01:05:06;22.80;;;17.40;;
56581;SDS011;42463;52.214;21.238;2022-07-24T01:07:34;21.50;;;17.80;;
56581;SDS011;42463;52.214;21.238;2022-07-24T01:10:01;22.20;;;18.10;;
56581;SDS011;42463;52.214;21.238;2022-07-24T01:12:27;25.80;;;19.10;;
56581;SDS011;42463;52.214;21.238;2022-07-24T01:14:54;25.70;;;19.30;;
56581;SDS011;42463;52.214;21.238;2022-07-24T01:17:21;24.50;;;18.80;;
56581;SDS011;42463;52.214;21.238;2022-07-24T01:19:47;25.00;;;19.70;;
56581;SDS011;42463;52.214;21.238;2022-07-24T01:22:13;22.50;;;19.10;;
56581;SDS011;42463;52.214;21.238;2022-07-24T01:24:39;24.90;;;19.50;;
56581;SDS011;42463;52.214;21.238;2022-07-24T01:27:06;21.60;;;18.20;;
56581;SDS011;42463;52.214;21.238;2022-07-24T01:29:32;26.00;;;19.90;;
56581;SDS011;42463;52.214;21.238;2022-07-24T01:31:58;24.50;;;20.00;;
56581;SDS011;42463;52.214;21.238;2022-07-24T01:34:24;24.30;;;19.80;;
56581;SDS011;42463;52.214;21.238;2022-07-24T01:36:50;26.00;;;21.10;;
56581;SDS011;42463;52.214;21.238;2022-07-24T01:39:17;21.50;;;17.80;;
56581;SDS011;42463;52.214;21.238;2022-07-24T01:41:43;21.70;;;17.90;;
56581;SDS011;42463;52.214;21.238;2022-07-24T01:44:08;18.30;;;13.70;;
56581;SDS011;42463;52.214;21.238;2022-07-24T01:46:35;14.10;;;11.60;;
56581;SDS011;42463;52.214;21.238;2022-07-24T01:49:01;11.70;;;10.20;;
56581;SDS011;42463;52.214;21.238;2022-07-24T01:51:28;13.90;;;8.90;;
56581;SDS011;42463;52.214;21.238;2022-07-24T01:53:54;10.50;;;9.00;;
56581;SDS011;42463;52.214;21.238;2022-07-24T01:56:20;10.90;;;8.70;;
56581;SDS011;42463;52.214;21.238;2022-07-24T01:58:47;10.60;;;7.90;;
56581;SDS011;42463;52.214;21.238;2022-07-24T02:01:12;8.60;;;7.40;;
56581;SDS011;42463;52.214;21.238;2022-07-24T02:03:38;8.70;;;7.80;;
56581;SDS011;42463;52.214;21.238;2022-07-24T02:06:05;9.80;;;7.70;;
56581;SDS011;42463;52.214;21.238;2022-07-24T02:08:32;9.10;;;6.40;;
56581;SDS011;42463;52.214;21.238;2022-07-24T02:10:59;10.00;;;5.90;;
56581;SDS011;42463;52.214;21.238;2022-07-24T02:13:25;6.50;;;5.40;;
56581;SDS011;42463;52.214;21.238;2022-07-24T02:15:52;7.70;;;4.60;;
56581;SDS011;42463;52.214;21.238;2022-07-24T02:18:18;5.50;;;4.80;;
56581;SDS011;42463;52.214;21.238;2022-07-24T02:20:44;5.70;;;4.50;;
56581;SDS011;42463;52.214;21.238;2022-07-24T02:23:10;5.60;;;4.10;;
56581;SDS011;42463;52.214;21.238;2022-07-24T02:25:40;5.20;;;4.10;;
56581;SDS011;42463;52.214;21.238;2022-07-24T02:28:06;4.90;;;3.60;;
56581;SDS011;42463;52.214;21.238;2022-07-24T02:30:32;4.70;;;3.40;;
56581;SDS011;42463;52.214;21.238;2022-07-24T02:32:59;4.90;;;3.40;;
56581;SDS011;42463;52.214;21.238;2022-07-24T02:35:25;6.20;;;3.20;;
56581;SDS011;42463;52.214;21.238;2022-07-24T02:37:51;6.10;;;3.40;;
56581;SDS011;42463;52.214;21.238;2022-07-24T02:40:18;5.60;;;2.90;;
56581;SDS011;42463;52.214;21.238;2022-07-24T02:42:44;6.10;;;3.40;;
56581;SDS011;42463;52.214;21.238;2022-07-24T02:45:11;4.30;;;3.30;;
56581;SDS011;42463;52.214;21.238;2022-07-24T02:47:46;5.60;;;3.80;;
56581;SDS011;42463;52.214;21.238;2022-07-24T02:50:14;4.80;;;3.60;;
56581;SDS011;42463;52.214;21.238;2022-07-24T02:52:41;5.70;;;3.30;;
56581;SDS011;42463;52.214;21.238;2022-07-24T02:55:08;4.40;;;3.30;;
56581;SDS011;42463;52.214;21.238;2022-07-24T02:57:35;4.20;;;3.30;;
56581;SDS011;42463;52.214;21.238;2022-07-24T03:00:02;4.90;;;3.50;;
56581;SDS011;42463;52.214;21.238;2022-07-24T03:02:30;6.60;;;3.40;;
56581;SDS011;42463;52.214;21.238;2022-07-24T03:04:56;5.80;;;3.50;;
56581;SDS011;42463;52.214;21.238;2022-07-24T03:07:22;4.30;;;3.10;;
56581;SDS011;42463;52.214;21.238;2022-07-24T03:09:48;8.10;;;3.70;;
56581;SDS011;42463;52.214;21.238;2022-07-24T03:12:15;3.80;;;3.40;;
56581;SDS011;42463;52.214;21.238;2022-07-24T03:14:41;4.30;;;3.50;;
56581;SDS011;42463;52.214;21.238;2022-07-24T03:17:07;6.00;;;3.00;;
56581;SDS011;42463;52.214;21.238;2022-07-24T03:19:33;4.20;;;3.20;;
56581;SDS011;42463;52.214;21.238;2022-07-24T03:21:59;4.00;;;3.00;;
56581;SDS011;42463;52.214;21.238;2022-07-24T03:24:25;5.60;;;3.40;;
56581;SDS011;42463;52.214;21.238;2022-07-24T03:26:51;4.60;;;3.10;;
56581;SDS011;42463;52.214;21.238;2022-07-24T03:29:17;3.70;;;3.00;;
56581;SDS011;42463;52.214;21.238;2022-07-24T03:31:43;5.10;;;3.20;;
56581;SDS011;42463;52.214;21.238;2022-07-24T03:34:10;4.40;;;3.20;;
56581;SDS011;42463;52.214;21.238;2022-07-24T03:36:36;7.90;;;3.40;;
56581;SDS011;42463;52.214;21.238;2022-07-24T03:39:02;5.00;;;3.20;;
56581;SDS011;42463;52.214;21.238;2022-07-24T03:41:29;7.00;;;3.50;;
56581;SDS011;42463;52.214;21.238;2022-07-24T03:43:55;4.20;;;3.20;;
56581;SDS011;42463;52.214;21.238;2022-07-24T03:46:22;4.60;;;3.40;;
56581;SDS011;42463;52.214;21.238;2022-07-24T03:48:51;3.50;;;3.10;;
56581;SDS011;42463;52.214;21.238;2022-07-24T03:51:17;3.60;;;3.00;;
56581;SDS011;42463;52.214;21.238;2022-07-24T03:53:43;4.70;;;3.30;;
56581;SDS011;42463;52.214;21.238;2022-07-24T03:56:10;7.40;;;3.20;;
56581;SDS011;42463;52.214;21.238;2022-07-24T03:58:38;5.00;;;3.40;;
56581;SDS011;42463;52.214;21.238;2022-07-24T04:01:04;5.90;;;3.50;;
56581;SDS011;42463;52.214;21.238;2022-07-24T04:03:30;4.10;;;3.40;;
56581;SDS011;42463;52.214;21.238;2022-07-24T04:05:56;9.30;;;3.80;;
56581;SDS011;42463;52.214;21.238;2022-07-24T04:08:24;4.50;;;3.50;;
56581;SDS011;42463;52.214;21.238;2022-07-24T04:10:50;4.20;;;3.50;;
56581;SDS011;42463;52.214;21.238;2022-07-24T04:13:20;5.80;;;3.40;;
56581;SDS011;42463;52.214;21.238;2022-07-24T04:15:46;5.10;;;3.60;;
56581;SDS011;42463;52.214;21.238;2022-07-24T04:18:12;5.20;;;3.70;;
56581;SDS011;42463;52.214;21.238;2022-07-24T04:20:39;5.70;;;3.40;;
56581;SDS011;42463;52.214;21.238;2022-07-24T04:23:06;5.00;;;3.10;;
56581;SDS011;42463;52.214;21.238;2022-07-24T04:25:32;4.30;;;3.40;;
56581;SDS011;42463;52.214;21.238;2022-07-24T04:27:58;4.70;;;3.00;;
56581;SDS011;42463;52.214;21.238;2022-07-24T04:30:24;4.40;;;2.90;;
56581;SDS011;42463;52.214;21.238;2022-07-24T04:32:51;6.40;;;3.50;;
56581;SDS011;42463;52.214;21.238;2022-07-24T04:35:18;4.30;;;2.90;;
56581;SDS011;42463;52.214;21.238;2022-07-24T04:37:44;4.00;;;3.20;;
56581;SDS011;42463;52.214;21.238;2022-07-24T04:40:12;7.30;;;3.40;;
56581;SDS011;42463;52.214;21.238;2022-07-24T04:42:39;6.40;;;3.10;;
56581;SDS011;42463;52.214;21.238;2022-07-24T04:45:06;4.60;;;2.80;;
56581;SDS011;42463;52.214;21.238;2022-07-24T04:47:34;4.60;;;2.80;;
56581;SDS011;42463;52.214;21.238;2022-07-24T04:50:01;3.30;;;3.00;;
56581;SDS011;42463;52.214;21.238;2022-07-24T04:52:28;6.80;;;3.10;;
56581;SDS011;42463;52.214;21.238;2022-07-24T04:54:54;4.30;;;2.70;;
56581;SDS011;42463;52.214;21.238;2022-07-24T04:57:20;4.90;;;3.00;;
56581;SDS011;42463;52.214;21.238;2022-07-24T04:59:46;4.70;;;2.90;;
56581;SDS011;42463;52.214;21.238;2022-07-24T05:02:13;3.80;;;2.50;;
56581;SDS011;42463;52.214;21.238;2022-07-24T05:04:40;5.80;;;2.80;;
56581;SDS011;42463;52.214;21.238;2022-07-24T05:07:06;4.40;;;2.50;;
56581;SDS011;42463;52.214;21.238;2022-07-24T05:09:32;6.10;;;2.70;;
56581;SDS011;42463;52.214;21.238;2022-07-24T05:11:58;6.10;;;2.60;;
56581;SDS011;42463;52.214;21.238;2022-07-24T05:14:25;6.80;;;2.90;;
56581;SDS011;42463;52.214;21.238;2022-07-24T05:16:51;4.30;;;2.70;;
56581;SDS011;42463;52.214;21.238;2022-07-24T05:19:17;4.20;;;2.20;;
56581;SDS011;42463;52.214;21.238;2022-07-24T05:21:43;2.80;;;2.30;;
56581;SDS011;42463;52.214;21.238;2022-07-24T05:24:09;5.10;;;2.40;;
56581;SDS011;42463;52.214;21.238;2022-07-24T05:26:36;3.00;;;2.30;;
56581;SDS011;42463;52.214;21.238;2022-07-24T05:29:02;4.60;;;2.60;;
56581;SDS011;42463;52.214;21.238;2022-07-24T05:31:29;4.20;;;2.40;;
56581;SDS011;42463;52.214;21.238;2022-07-24T05:33:56;4.30;;;2.70;;
56581;SDS011;42463;52.214;21.238;2022-07-24T05:36:21;3.40;;;2.30;;
56581;SDS011;42463;52.214;21.238;2022-07-24T05:38:48;4.60;;;2.40;;
56581;SDS011;42463;52.214;21.238;2022-07-24T05:41:14;6.40;;;2.50;;
56581;SDS011;42463;52.214;21.238;2022-07-24T05:43:40;3.60;;;2.20;;
56581;SDS011;42463;52.214;21.238;2022-07-24T05:46:06;4.60;;;2.10;;
56581;SDS011;42463;52.214;21.238;2022-07-24T05:48:32;5.10;;;2.00;;
56581;SDS011;42463;52.214;21.238;2022-07-24T05:50:58;3.00;;;1.80;;
56581;SDS011;42463;52.214;21.238;2022-07-24T05:53:25;5.10;;;1.90;;
56581;SDS011;42463;52.214;21.238;2022-07-24T05:55:51;3.30;;;1.90;;
56581;SDS011;42463;52.214;21.238;2022-07-24T05:58:18;5.70;;;1.80;;
56581;SDS011;42463;52.214;21.238;2022-07-24T06:00:44;2.50;;;1.70;;
56581;SDS011;42463;52.214;21.238;2022-07-24T06:03:10;2.30;;;1.80;;
56581;SDS011;42463;52.214;21.238;2022-07-24T06:05:36;3.50;;;1.80;;
56581;SDS011;42463;52.214;21.238;2022-07-24T06:08:03;2.50;;;1.70;;
56581;SDS011;42463;52.214;21.238;2022-07-24T06:10:29;4.10;;;1.80;;
56581;SDS011;42463;52.214;21.238;2022-07-24T06:12:56;4.00;;;2.00;;
56581;SDS011;42463;52.214;21.238;2022-07-24T06:15:22;4.50;;;1.80;;
56581;SDS011;42463;52.214;21.238;2022-07-24T06:17:48;3.60;;;1.80;;
56581;SDS011;42463;52.214;21.238;2022-07-24T06:20:14;1.90;;;1.50;;
56581;SDS011;42463;52.214;21.238;2022-07-24T06:22:41;3.00;;;1.70;;
56581;SDS011;42463;52.214;21.238;2022-07-24T06:25:09;3.10;;;1.50;;
56581;SDS011;42463;52.214;21.238;2022-07-24T06:27:36;3.70;;;1.50;;
56581;SDS011;42463;52.214;21.238;2022-07-24T06:30:11;4.30;;;1.90;;
56581;SDS011;42463;52.214;21.238;2022-07-24T06:32:38;3.90;;;1.50;;
56581;SDS011;42463;52.214;21.238;2022-07-24T06:35:06;3.90;;;1.50;;
56581;SDS011;42463;52.214;21.238;2022-07-24T06:37:32;2.40;;;2.10;;
56581;SDS011;42463;52.214;21.238;2022-07-24T06:39:58;3.60;;;1.90;;
56581;SDS011;42463;52.214;21.238;2022-07-24T06:42:25;4.20;;;1.70;;
56581;SDS011;42463;52.214;21.238;2022-07-24T06:44:51;3.40;;;1.90;;
56581;SDS011;42463;52.214;21.238;2022-07-24T06:47:17;3.60;;;1.70;;
56581;SDS011;42463;52.214;21.238;2022-07-24T06:49:43;3.20;;;2.20;;
56581;SDS011;42463;52.214;21.238;2022-07-24T06:52:10;2.30;;;1.70;;
56581;SDS011;42463;52.214;21.238;2022-07-24T06:54:36;5.30;;;1.90;;
56581;SDS011;42463;52.214;21.238;2022-07-24T06:57:02;4.10;;;1.80;;
56581;SDS011;42463;52.214;21.238;2022-07-24T06:59:28;4.40;;;1.90;;
56581;SDS011;42463;52.214;21.238;2022-07-24T07:01:55;3.40;;;1.80;;
56581;SDS011;42463;52.214;21.238;2022-07-24T07:04:21;3.20;;;1.70;;
56581;SDS011;42463;52.214;21.238;2022-07-24T07:06:47;2.30;;;1.90;;
56581;SDS011;42463;52.214;21.238;2022-07-24T07:09:13;3.10;;;2.10;;
56581;SDS011;42463;52.214;21.238;2022-07-24T07:11:40;4.40;;;2.20;;
56581;SDS011;42463;52.214;21.238;2022-07-24T07:14:06;2.80;;;1.80;;
56581;SDS011;42463;52.214;21.238;2022-07-24T07:16:33;2.70;;;1.90;;
56581;SDS011;42463;52.214;21.238;2022-07-24T07:18:59;4.20;;;1.80;;
56581;SDS011;42463;52.214;21.238;2022-07-24T07:21:26;2.20;;;1.90;;
56581;SDS011;42463;52.214;21.238;2022-07-24T07:23:52;4.30;;;2.00;;
56581;SDS011;42463;52.214;21.238;2022-07-24T07:26:18;2.60;;;2.10;;
56581;SDS011;42463;52.214;21.238;2022-07-24T07:28:45;4.90;;;2.10;;
56581;SDS011;42463;52.214;21.238;2022-07-24T07:31:11;4.30;;;1.80;;
56581;SDS011;42463;52.214;21.238;2022-07-24T07:33:37;3.50;;;1.80;;
56581;SDS011;42463;52.214;21.238;2022-07-24T07:36:03;5.10;;;1.80;;
56581;SDS011;42463;52.214;21.238;2022-07-24T07:38:32;3.10;;;2.10;;
56581;SDS011;42463;52.214;21.238;2022-07-24T07:41:00;5.00;;;1.90;;
56581;SDS011;42463;52.214;21.238;2022-07-24T07:43:26;4.60;;;2.40;;
56581;SDS011;42463;52.214;21.238;2022-07-24T07:45:53;4.70;;;2.70;;
56581;SDS011;42463;52.214;21.238;2022-07-24T07:48:19;4.60;;;2.20;;
56581;SDS011;42463;52.214;21.238;2022-07-24T07:50:45;6.10;;;2.50;;
56581;SDS011;42463;52.214;21.238;2022-07-24T07:53:12;3.70;;;2.20;;
56581;SDS011;42463;52.214;21.238;2022-07-24T07:55:38;5.20;;;2.20;;
56581;SDS011;42463;52.214;21.238;2022-07-24T07:58:05;4.40;;;1.80;;
56581;SDS011;42463;52.214;21.238;2022-07-24T08:00:33;2.60;;;2.00;;
56581;SDS011;42463;52.214;21.238;2022-07-24T08:02:59;3.30;;;2.30;;
56581;SDS011;42463;52.214;21.238;2022-07-24T08:05:25;4.40;;;2.10;;
56581;SDS011;42463;52.214;21.238;2022-07-24T08:07:51;3.00;;;1.70;;
56581;SDS011;42463;52.214;21.238;2022-07-24T08:10:17;2.90;;;2.00;;
56581;SDS011;42463;52.214;21.238;2022-07-24T08:12:44;2.50;;;1.90;;
56581;SDS011;42463;52.214;21.238;2022-07-24T08:15:11;2.80;;;1.70;;
56581;SDS011;42463;52.214;21.238;2022-07-24T08:17:37;2.90;;;1.60;;
56581;SDS011;42463;52.214;21.238;2022-07-24T08:20:05;4.50;;;2.10;;
56581;SDS011;42463;52.214;21.238;2022-07-24T08:22:32;3.20;;;1.90;;
56581;SDS011;42463;52.214;21.238;2022-07-24T08:24:58;2.90;;;1.70;;
56581;SDS011;42463;52.214;21.238;2022-07-24T08:27:24;6.20;;;2.00;;
56581;SDS011;42463;52.214;21.238;2022-07-24T08:29:51;2.40;;;1.80;;
56581;SDS011;42463;52.214;21.238;2022-07-24T08:32:18;3.20;;;1.60;;
56581;SDS011;42463;52.214;21.238;2022-07-24T08:34:44;3.70;;;1.70;;
56581;SDS011;42463;52.214;21.238;2022-07-24T08:37:10;3.90;;;2.60;;
56581;SDS011;42463;52.214;21.238;2022-07-24T08:39:38;3.10;;;1.80;;
56581;SDS011;42463;52.214;21.238;2022-07-24T08:42:06;2.60;;;1.70;;
56581;SDS011;42463;52.214;21.238;2022-07-24T08:44:33;3.90;;;2.00;;
56581;SDS011;42463;52.214;21.238;2022-07-24T08:46:59;3.30;;;2.00;;
56581;SDS011;42463;52.214;21.238;2022-07-24T08:49:25;2.40;;;1.80;;
56581;SDS011;42463;52.214;21.238;2022-07-24T08:51:54;2.60;;;1.60;;
56581;SDS011;42463;52.214;21.238;2022-07-24T08:54:23;2.30;;;1.80;;
56581;SDS011;42463;52.214;21.238;2022-07-24T08:56:50;2.40;;;1.60;;
56581;SDS011;42463;52.214;21.238;2022-07-24T08:59:20;3.20;;;1.80;;
56581;SDS011;42463;52.214;21.238;2022-07-24T09:01:48;2.40;;;1.40;;
56581;SDS011;42463;52.214;21.238;2022-07-24T09:04:37;2.90;;;2.10;;
56581;SDS011;42463;52.214;21.238;2022-07-24T09:07:05;2.90;;;1.60;;
56581;SDS011;42463;52.214;21.238;2022-07-24T09:09:33;3.50;;;1.60;;
56581;SDS011;42463;52.214;21.238;2022-07-24T09:12:09;3.60;;;1.50;;
56581;SDS011;42463;52.214;21.238;2022-07-24T09:14:38;2.20;;;2.00;;
56581;SDS011;42463;52.214;21.238;2022-07-24T09:17:07;4.20;;;2.00;;
56581;SDS011;42463;52.214;21.238;2022-07-24T09:19:49;4.40;;;1.70;;
56581;SDS011;42463;52.214;21.238;2022-07-24T09:22:26;1.80;;;1.70;;
56581;SDS011;42463;52.214;21.238;2022-07-24T09:25:10;2.20;;;1.70;;
56581;SDS011;42463;52.214;21.238;2022-07-24T09:27:41;2.20;;;1.80;;
56581;SDS011;42463;52.214;21.238;2022-07-24T09:30:20;2.40;;;1.70;;
56581;SDS011;42463;52.214;21.238;2022-07-24T09:33:07;3.20;;;1.50;;
56581;SDS011;42463;52.214;21.238;2022-07-24T09:35:44;2.00;;;1.80;;
56581;SDS011;42463;52.214;21.238;2022-07-24T09:38:12;1.60;;;1.50;;
56581;SDS011;42463;52.214;21.238;2022-07-24T09:40:42;4.00;;;1.80;;
56581;SDS011;42463;52.214;21.238;2022-07-24T09:43:18;3.50;;;1.70;;
56581;SDS011;42463;52.214;21.238;2022-07-24T09:46:00;2.10;;;1.70;;
56581;SDS011;42463;52.214;21.238;2022-07-24T09:48:30;3.40;;;1.80;;
56581;SDS011;42463;52.214;21.238;2022-07-24T09:50:58;3.20;;;1.70;;
56581;SDS011;42463;52.214;21.238;2022-07-24T09:53:29;2.30;;;1.60;;
56581;SDS011;42463;52.214;21.238;2022-07-24T09:56:03;5.20;;;1.90;;
56581;SDS011;42463;52.214;21.238;2022-07-24T09:58:32;4.90;;;2.00;;
56581;SDS011;42463;52.214;21.238;2022-07-24T10:01:01;2.50;;;1.70;;
56581;SDS011;42463;52.214;21.238;2022-07-24T10:03:29;3.60;;;1.60;;
56581;SDS011;42463;52.214;21.238;2022-07-24T10:05:58;2.30;;;1.70;;
56581;SDS011;42463;52.214;21.238;2022-07-24T10:08:28;2.60;;;1.70;;
56581;SDS011;42463;52.214;21.238;2022-07-24T10:10:55;2.20;;;1.60;;
56581;SDS011;42463;52.214;21.238;2022-07-24T10:13:22;2.90;;;1.60;;
56581;SDS011;42463;52.214;21.238;2022-07-24T10:15:58;2.20;;;1.70;;
56581;SDS011;42463;52.214;21.238;2022-07-24T10:18:42;1.50;;;1.40;;
56581;SDS011;42463;52.214;21.238;2022-07-24T10:21:16;3.70;;;1.80;;
56581;SDS011;42463;52.214;21.238;2022-07-24T10:23:53;3.50;;;1.60;;
56581;SDS011;42463;52.214;21.238;2022-07-24T10:26:38;4.00;;;2.00;;
56581;SDS011;42463;52.214;21.238;2022-07-24T10:29:08;26.50;;;6.80;;
56581;SDS011;42463;52.214;21.238;2022-07-24T10:31:35;5.00;;;1.80;;
56581;SDS011;42463;52.214;21.238;2022-07-24T10:34:03;2.70;;;1.60;;
56581;SDS011;42463;52.214;21.238;2022-07-24T10:36:35;1.80;;;1.70;;
56581;SDS011;42463;52.214;21.238;2022-07-24T10:39:16;2.60;;;2.00;;
56581;SDS011;42463;52.214;21.238;2022-07-24T10:41:48;11.00;;;4.50;;
56581;SDS011;42463;52.214;21.238;2022-07-24T10:44:26;2.70;;;1.90;;
56581;SDS011;42463;52.214;21.238;2022-07-24T10:47:03;4.10;;;1.80;;
56581;SDS011;42463;52.214;21.238;2022-07-24T10:49:45;2.60;;;2.00;;
56581;SDS011;42463;52.214;21.238;2022-07-24T10:52:22;4.00;;;2.00;;
56581;SDS011;42463;52.214;21.238;2022-07-24T10:57:56;2.50;;;1.90;;
56581;SDS011;42463;52.214;21.238;2022-07-24T11:00:25;3.70;;;2.20;;
56581;SDS011;42463;52.214;21.238;2022-07-24T11:02:59;6.40;;;2.50;;
56581;SDS011;42463;52.214;21.238;2022-07-24T11:05:29;3.30;;;2.10;;
56581;SDS011;42463;52.214;21.238;2022-07-24T11:10:59;4.60;;;2.10;;
56581;SDS011;42463;52.214;21.238;2022-07-24T11:13:54;3.30;;;2.50;;
56581;SDS011;42463;52.214;21.238;2022-07-24T11:16:30;3.40;;;2.20;;
56581;SDS011;42463;52.214;21.238;2022-07-24T11:19:27;2.60;;;2.10;;
56581;SDS011;42463;52.214;21.238;2022-07-24T11:22:10;3.50;;;2.60;;
56581;SDS011;42463;52.214;21.238;2022-07-24T11:24:40;2.90;;;2.60;;
56581;SDS011;42463;52.214;21.238;2022-07-24T11:27:28;5.20;;;2.80;;
56581;SDS011;42463;52.214;21.238;2022-07-24T11:30:09;3.20;;;2.50;;
56581;SDS011;42463;52.214;21.238;2022-07-24T11:32:35;5.30;;;2.50;;
56581;SDS011;42463;52.214;21.238;2022-07-24T11:35:03;4.00;;;2.50;;
56581;SDS011;42463;52.214;21.238;2022-07-24T11:37:32;5.00;;;2.40;;
56581;SDS011;42463;52.214;21.238;2022-07-24T11:40:00;3.00;;;2.40;;
56581;SDS011;42463;52.214;21.238;2022-07-24T11:42:28;3.10;;;2.20;;
56581;SDS011;42463;52.214;21.238;2022-07-24T11:44:54;2.70;;;2.40;;
56581;SDS011;42463;52.214;21.238;2022-07-24T11:47:22;4.20;;;2.30;;
56581;SDS011;42463;52.214;21.238;2022-07-24T11:49:51;3.60;;;2.60;;
56581;SDS011;42463;52.214;21.238;2022-07-24T11:52:21;2.70;;;2.40;;
56581;SDS011;42463;52.214;21.238;2022-07-24T11:54:50;2.90;;;2.30;;
56581;SDS011;42463;52.214;21.238;2022-07-24T11:57:21;3.50;;;2.60;;
56581;SDS011;42463;52.214;21.238;2022-07-24T11:59:50;3.00;;;2.40;;
56581;SDS011;42463;52.214;21.238;2022-07-24T12:02:17;3.20;;;2.90;;
56581;SDS011;42463;52.214;21.238;2022-07-24T12:04:44;11.40;;;4.00;;
56581;SDS011;42463;52.214;21.238;2022-07-24T12:07:14;4.70;;;3.20;;
56581;SDS011;42463;52.214;21.238;2022-07-24T12:09:49;4.50;;;3.00;;
56581;SDS011;42463;52.214;21.238;2022-07-24T12:12:21;3.90;;;2.80;;
56581;SDS011;42463;52.214;21.238;2022-07-24T12:14:50;5.90;;;2.60;;
56581;SDS011;42463;52.214;21.238;2022-07-24T12:17:17;5.00;;;3.00;;
56581;SDS011;42463;52.214;21.238;2022-07-24T12:19:53;4.90;;;2.90;;
56581;SDS011;42463;52.214;21.238;2022-07-24T12:22:21;3.90;;;2.30;;
56581;SDS011;42463;52.214;21.238;2022-07-24T12:24:49;3.10;;;2.60;;
56581;SDS011;42463;52.214;21.238;2022-07-24T12:30:28;4.20;;;2.80;;
56581;SDS011;42463;52.214;21.238;2022-07-24T12:33:00;3.80;;;2.90;;
56581;SDS011;42463;52.214;21.238;2022-07-24T12:35:53;4.90;;;4.30;;
56581;SDS011;42463;52.214;21.238;2022-07-24T12:38:28;3.10;;;2.80;;
56581;SDS011;42463;52.214;21.238;2022-07-24T12:41:04;2.80;;;2.40;;
56581;SDS011;42463;52.214;21.238;2022-07-24T12:43:33;3.10;;;2.50;;
56581;SDS011;42463;52.214;21.238;2022-07-24T12:46:14;3.90;;;3.30;;
56581;SDS011;42463;52.214;21.238;2022-07-24T12:48:57;3.10;;;2.80;;
56581;SDS011;42463;52.214;21.238;2022-07-24T12:51:25;2.60;;;2.40;;
56581;SDS011;42463;52.214;21.238;2022-07-24T12:53:55;5.00;;;2.70;;
56581;SDS011;42463;52.214;21.238;2022-07-24T12:56:21;3.00;;;2.70;;
56581;SDS011;42463;52.214;21.238;2022-07-24T12:58:59;2.70;;;2.50;;
56581;SDS011;42463;52.214;21.238;2022-07-24T13:01:42;4.20;;;2.70;;
56581;SDS011;42463;52.214;21.238;2022-07-24T13:04:10;3.00;;;2.70;;
56581;SDS011;42463;52.214;21.238;2022-07-24T13:06:39;3.60;;;3.20;;
56581;SDS011;42463;52.214;21.238;2022-07-24T13:09:06;5.50;;;2.70;;
56581;SDS011;42463;52.214;21.238;2022-07-24T13:11:33;4.90;;;3.90;;
56581;SDS011;42463;52.214;21.238;2022-07-24T13:14:00;6.50;;;3.80;;
56581;SDS011;42463;52.214;21.238;2022-07-24T13:16:30;4.10;;;3.20;;
56581;SDS011;42463;52.214;21.238;2022-07-24T13:18:58;7.60;;;3.60;;
56581;SDS011;42463;52.214;21.238;2022-07-24T13:21:24;3.60;;;3.10;;
56581;SDS011;42463;52.214;21.238;2022-07-24T13:23:51;6.00;;;3.30;;
56581;SDS011;42463;52.214;21.238;2022-07-24T13:26:17;6.60;;;3.70;;
56581;SDS011;42463;52.214;21.238;2022-07-24T13:28:43;5.10;;;3.30;;
56581;SDS011;42463;52.214;21.238;2022-07-24T13:31:10;3.20;;;2.90;;
56581;SDS011;42463;52.214;21.238;2022-07-24T13:33:37;6.00;;;3.20;;
56581;SDS011;42463;52.214;21.238;2022-07-24T13:36:04;6.10;;;3.70;;
56581;SDS011;42463;52.214;21.238;2022-07-24T13:38:32;5.50;;;3.80;;
56581;SDS011;42463;52.214;21.238;2022-07-24T13:40:59;4.60;;;2.90;;
56581;SDS011;42463;52.214;21.238;2022-07-24T13:43:25;3.70;;;2.70;;
56581;SDS011;42463;52.214;21.238;2022-07-24T13:45:51;3.50;;;2.70;;
56581;SDS011;42463;52.214;21.238;2022-07-24T13:48:17;4.30;;;2.90;;
56581;SDS011;42463;52.214;21.238;2022-07-24T13:50:44;3.00;;;2.40;;
56581;SDS011;42463;52.214;21.238;2022-07-24T13:53:10;2.90;;;2.60;;
56581;SDS011;42463;52.214;21.238;2022-07-24T13:55:37;3.50;;;2.50;;
56581;SDS011;42463;52.214;21.238;2022-07-24T13:58:03;3.40;;;2.80;;
56581;SDS011;42463;52.214;21.238;2022-07-24T14:00:30;4.30;;;2.90;;
56581;SDS011;42463;52.214;21.238;2022-07-24T14:02:57;3.80;;;2.30;;
56581;SDS011;42463;52.214;21.238;2022-07-24T14:05:23;2.70;;;2.50;;
56581;SDS011;42463;52.214;21.238;2022-07-24T14:07:50;2.90;;;2.70;;
56581;SDS011;42463;52.214;21.238;2022-07-24T14:10:24;3.60;;;2.60;;
56581;SDS011;42463;52.214;21.238;2022-07-24T14:12:51;3.50;;;2.40;;
56581;SDS011;42463;52.214;21.238;2022-07-24T14:15:18;3.20;;;2.60;;
56581;SDS011;42463;52.214;21.238;2022-07-24T14:17:44;3.00;;;2.60;;
56581;SDS011;42463;52.214;21.238;2022-07-24T14:20:12;3.60;;;2.70;;
56581;SDS011;42463;52.214;21.238;2022-07-24T14:22:39;3.00;;;2.70;;
56581;SDS011;42463;52.214;21.238;2022-07-24T14:25:07;3.40;;;2.70;;
56581;SDS011;42463;52.214;21.238;2022-07-24T14:27:34;3.10;;;2.40;;
56581;SDS011;42463;52.214;21.238;2022-07-24T14:30:02;3.30;;;2.60;;
56581;SDS011;42463;52.214;21.238;2022-07-24T14:32:29;2.60;;;2.30;;
56581;SDS011;42463;52.214;21.238;2022-07-24T14:34:56;3.80;;;2.60;;
56581;SDS011;42463;52.214;21.238;2022-07-24T14:37:22;3.90;;;2.60;;
56581;SDS011;42463;52.214;21.238;2022-07-24T14:39:48;2.90;;;2.60;;
56581;SDS011;42463;52.214;21.238;2022-07-24T14:42:16;3.50;;;2.90;;
56581;SDS011;42463;52.214;21.238;2022-07-24T14:44:42;5.10;;;3.90;;
56581;SDS011;42463;52.214;21.238;2022-07-24T14:47:08;5.80;;;4.10;;